sensor_id;sensor_type;location;lat;lon;timestamp;P1;durP1;ratioP1;P2;durP2;ratioP2
4603;SDS011;2314;48.272;11.562;2023-03-01T00:01:27;147.33;;;15.30;;
4603;SDS011;2314;48.272;11.562;2023-03-01T00:03:57;148.43;;;15.93;;
4603;SDS011;2314;48.272;11.562;2023-03-01T00:06:25;147.37;;;15.70;;
4603;SDS011;2314;48.272;11.562;2023-03-01T00:08:55;144.50;;;15.07;;
4603;SDS011;2314;48.272;11.562;2023-03-01T00:11:23;144.40;;;13.90;;
4603;SDS011;2314;48.272;11.562;2023-03-01T00:13:52;145.43;;;14.53;;
4603;SDS011;2314;48.272;11.562;2023-03-01T00:16:22;145.40;;;14.70;;
4603;SDS011;2314;48.272;11.562;2023-03-01T00:18:54;149.10;;;14.73;;
4603;SDS011;2314;48.272;11.562;2023-03-01T00:21:22;147.07;;;15.53;;
4603;SDS011;2314;48.272;11.562;2023-03-01T00:23:51;149.20;;;15.67;;
4603;SDS011;2314;48.272;11.562;2023-03-01T00:26:21;144.40;;;13.93;;
4603;SDS011;2314;48.272;11.562;2023-03-01T00:28:49;143.80;;;14.83;;
4603;SDS011;2314;48.272;11.562;2023-03-01T00:31:18;145.47;;;15.53;;
4603;SDS011;2314;48.272;11.562;2023-03-01T00:33:48;139.90;;;12.67;;
4603;SDS011;2314;48.272;11.562;2023-03-01T00:36:18;140.80;;;14.07;;
4603;SDS011;2314;48.272;11.562;2023-03-01T00:38:45;147.03;;;14.60;;
4603;SDS011;2314;48.272;11.562;2023-03-01T00:41:14;144.97;;;14.80;;
4603;SDS011;2314;48.272;11.562;2023-03-01T00:43:44;146.00;;;15.37;;
4603;SDS011;2314;48.272;11.562;2023-03-01T00:46:12;145.17;;;14.63;;
4603;SDS011;2314;48.272;11.562;2023-03-01T00:48:42;145.30;;;14.93;;
4603;SDS011;2314;48.272;11.562;2023-03-01T00:51:11;144.33;;;14.17;;
4603;SDS011;2314;48.272;11.562;2023-03-01T00:53:40;140.90;;;13.50;;
4603;SDS011;2314;48.272;11.562;2023-03-01T00:56:08;150.00;;;15.50;;
4603;SDS011;2314;48.272;11.562;2023-03-01T00:58:38;155.90;;;15.10;;
4603;SDS011;2314;48.272;11.562;2023-03-01T01:01:09;143.17;;;14.50;;
4603;SDS011;2314;48.272;11.562;2023-03-01T01:03:43;145.73;;;15.10;;
4603;SDS011;2314;48.272;11.562;2023-03-01T01:06:16;143.03;;;14.93;;
4603;SDS011;2314;48.272;11.562;2023-03-01T01:08:45;146.03;;;13.67;;
4603;SDS011;2314;48.272;11.562;2023-03-01T01:11:12;147.47;;;14.50;;
4603;SDS011;2314;48.272;11.562;2023-03-01T01:13:40;144.00;;;14.57;;
4603;SDS011;2314;48.272;11.562;2023-03-01T01:16:08;142.87;;;14.07;;
4603;SDS011;2314;48.272;11.562;2023-03-01T01:18:37;143.13;;;13.70;;
4603;SDS011;2314;48.272;11.562;2023-03-01T01:21:05;143.67;;;14.17;;
4603;SDS011;2314;48.272;11.562;2023-03-01T01:23:35;143.13;;;14.27;;
4603;SDS011;2314;48.272;11.562;2023-03-01T01:26:03;148.47;;;16.20;;
4603;SDS011;2314;48.272;11.562;2023-03-01T01:28:31;143.37;;;14.73;;
4603;SDS011;2314;48.272;11.562;2023-03-01T01:30:59;144.80;;;14.97;;
4603;SDS011;2314;48.272;11.562;2023-03-01T01:33:27;143.67;;;14.10;;
4603;SDS011;2314;48.272;11.562;2023-03-01T01:35:54;143.30;;;14.40;;
4603;SDS011;2314;48.272;11.562;2023-03-01T01:38:21;143.10;;;13.80;;
4603;SDS011;2314;48.272;11.562;2023-03-01T01:40:49;143.83;;;15.23;;
4603;SDS011;2314;48.272;11.562;2023-03-01T01:43:21;156.23;;;13.47;;
4603;SDS011;2314;48.272;11.562;2023-03-01T01:45:50;148.33;;;15.40;;
4603;SDS011;2314;48.272;11.562;2023-03-01T01:48:18;141.37;;;13.50;;
4603;SDS011;2314;48.272;11.562;2023-03-01T01:50:51;144.43;;;15.10;;
4603;SDS011;2314;48.272;11.562;2023-03-01T01:53:23;147.47;;;15.17;;
4603;SDS011;2314;48.272;11.562;2023-03-01T01:55:54;145.60;;;15.03;;
4603;SDS011;2314;48.272;11.562;2023-03-01T01:58:25;147.97;;;15.57;;
4603;SDS011;2314;48.272;11.562;2023-03-01T02:00:56;143.13;;;13.97;;
4603;SDS011;2314;48.272;11.562;2023-03-01T02:03:24;142.67;;;14.40;;
4603;SDS011;2314;48.272;11.562;2023-03-01T02:05:56;144.60;;;14.33;;
4603;SDS011;2314;48.272;11.562;2023-03-01T02:08:30;141.77;;;14.10;;
4603;SDS011;2314;48.272;11.562;2023-03-01T02:11:02;146.03;;;13.73;;
4603;SDS011;2314;48.272;11.562;2023-03-01T02:13:29;141.63;;;13.90;;
4603;SDS011;2314;48.272;11.562;2023-03-01T02:15:57;141.33;;;13.60;;
4603;SDS011;2314;48.272;11.562;2023-03-01T02:18:25;146.07;;;14.47;;
4603;SDS011;2314;48.272;11.562;2023-03-01T02:20:58;145.63;;;15.50;;
4603;SDS011;2314;48.272;11.562;2023-03-01T02:23:37;144.10;;;15.33;;
4603;SDS011;2314;48.272;11.562;2023-03-01T02:26:07;149.10;;;14.57;;
4603;SDS011;2314;48.272;11.562;2023-03-01T02:28:43;150.30;;;14.77;;
4603;SDS011;2314;48.272;11.562;2023-03-01T02:31:11;147.03;;;15.13;;
4603;SDS011;2314;48.272;11.562;2023-03-01T02:34:02;143.33;;;13.30;;
4603;SDS011;2314;48.272;11.562;2023-03-01T02:36:31;147.03;;;15.30;;
4603;SDS011;2314;48.272;11.562;2023-03-01T02:39:03;147.07;;;13.80;;
4603;SDS011;2314;48.272;11.562;2023-03-01T02:41:40;147.83;;;14.73;;
4603;SDS011;2314;48.272;11.562;2023-03-01T02:44:13;150.03;;;15.50;;
4603;SDS011;2314;48.272;11.562;2023-03-01T02:46:44;145.77;;;14.50;;
4603;SDS011;2314;48.272;11.562;2023-03-01T02:49:24;146.50;;;14.60;;
4603;SDS011;2314;48.272;11.562;2023-03-01T02:55:00;149.60;;;15.23;;
4603;SDS011;2314;48.272;11.562;2023-03-01T02:57:30;148.70;;;16.43;;
4603;SDS011;2314;48.272;11.562;2023-03-01T03:00:02;145.80;;;14.60;;
4603;SDS011;2314;48.272;11.562;2023-03-01T03:02:33;149.27;;;14.80;;
4603;SDS011;2314;48.272;11.562;2023-03-01T03:05:05;144.17;;;13.57;;
4603;SDS011;2314;48.272;11.562;2023-03-01T03:07:35;149.03;;;14.67;;
4603;SDS011;2314;48.272;11.562;2023-03-01T03:10:07;149.77;;;15.30;;
4603;SDS011;2314;48.272;11.562;2023-03-01T03:12:38;145.93;;;13.80;;
4603;SDS011;2314;48.272;11.562;2023-03-01T03:15:08;143.77;;;14.30;;
4603;SDS011;2314;48.272;11.562;2023-03-01T03:17:38;147.20;;;14.97;;
4603;SDS011;2314;48.272;11.562;2023-03-01T03:20:07;146.00;;;14.20;;
4603;SDS011;2314;48.272;11.562;2023-03-01T03:22:37;144.30;;;14.53;;
4603;SDS011;2314;48.272;11.562;2023-03-01T03:25:05;142.83;;;14.23;;
4603;SDS011;2314;48.272;11.562;2023-03-01T03:27:35;151.53;;;13.67;;
4603;SDS011;2314;48.272;11.562;2023-03-01T03:30:03;146.60;;;14.70;;
4603;SDS011;2314;48.272;11.562;2023-03-01T03:32:35;146.30;;;14.40;;
4603;SDS011;2314;48.272;11.562;2023-03-01T03:35:03;143.50;;;14.47;;
4603;SDS011;2314;48.272;11.562;2023-03-01T03:37:34;141.90;;;13.50;;
4603;SDS011;2314;48.272;11.562;2023-03-01T03:40:19;138.67;;;13.13;;
4603;SDS011;2314;48.272;11.562;2023-03-01T03:42:46;141.60;;;14.00;;
4603;SDS011;2314;48.272;11.562;2023-03-01T03:45:13;144.67;;;14.27;;
4603;SDS011;2314;48.272;11.562;2023-03-01T03:47:41;141.40;;;13.33;;
4603;SDS011;2314;48.272;11.562;2023-03-01T03:50:09;146.30;;;15.70;;
4603;SDS011;2314;48.272;11.562;2023-03-01T03:52:37;144.80;;;14.80;;
4603;SDS011;2314;48.272;11.562;2023-03-01T03:55:05;145.03;;;14.40;;
4603;SDS011;2314;48.272;11.562;2023-03-01T03:57:36;141.47;;;14.07;;
4603;SDS011;2314;48.272;11.562;2023-03-01T04:00:03;146.07;;;15.60;;
4603;SDS011;2314;48.272;11.562;2023-03-01T04:02:37;144.60;;;14.57;;
4603;SDS011;2314;48.272;11.562;2023-03-01T04:05:07;147.20;;;14.37;;
4603;SDS011;2314;48.272;11.562;2023-03-01T04:07:36;148.77;;;16.07;;
4603;SDS011;2314;48.272;11.562;2023-03-01T04:10:05;144.27;;;15.27;;
4603;SDS011;2314;48.272;11.562;2023-03-01T04:12:39;143.67;;;14.30;;
4603;SDS011;2314;48.272;11.562;2023-03-01T04:15:08;147.20;;;15.30;;
4603;SDS011;2314;48.272;11.562;2023-03-01T04:17:38;145.37;;;14.27;;
4603;SDS011;2314;48.272;11.562;2023-03-01T04:20:08;147.73;;;15.33;;
4603;SDS011;2314;48.272;11.562;2023-03-01T04:22:37;144.67;;;14.37;;
4603;SDS011;2314;48.272;11.562;2023-03-01T04:25:05;149.50;;;15.47;;
4603;SDS011;2314;48.272;11.562;2023-03-01T04:27:33;143.97;;;14.87;;
4603;SDS011;2314;48.272;11.562;2023-03-01T04:30:00;144.80;;;15.10;;
4603;SDS011;2314;48.272;11.562;2023-03-01T04:32:27;145.07;;;14.17;;
4603;SDS011;2314;48.272;11.562;2023-03-01T04:34:54;147.30;;;15.03;;
4603;SDS011;2314;48.272;11.562;2023-03-01T04:37:22;142.60;;;13.40;;
4603;SDS011;2314;48.272;11.562;2023-03-01T04:39:50;152.13;;;14.67;;
4603;SDS011;2314;48.272;11.562;2023-03-01T04:42:17;151.40;;;15.47;;
4603;SDS011;2314;48.272;11.562;2023-03-01T04:44:45;144.13;;;14.70;;
4603;SDS011;2314;48.272;11.562;2023-03-01T04:47:12;148.90;;;15.27;;
4603;SDS011;2314;48.272;11.562;2023-03-01T04:49:39;149.73;;;15.80;;
4603;SDS011;2314;48.272;11.562;2023-03-01T04:52:06;141.53;;;14.40;;
4603;SDS011;2314;48.272;11.562;2023-03-01T04:54:35;150.77;;;14.77;;
4603;SDS011;2314;48.272;11.562;2023-03-01T04:57:03;146.40;;;14.70;;
4603;SDS011;2314;48.272;11.562;2023-03-01T04:59:30;150.27;;;15.87;;
4603;SDS011;2314;48.272;11.562;2023-03-01T05:01:56;150.97;;;15.83;;
4603;SDS011;2314;48.272;11.562;2023-03-01T05:04:25;151.67;;;16.00;;
4603;SDS011;2314;48.272;11.562;2023-03-01T05:06:52;144.67;;;15.03;;
4603;SDS011;2314;48.272;11.562;2023-03-01T05:09:19;147.10;;;15.30;;
4603;SDS011;2314;48.272;11.562;2023-03-01T05:11:47;153.80;;;16.60;;
4603;SDS011;2314;48.272;11.562;2023-03-01T05:14:16;153.07;;;16.27;;
4603;SDS011;2314;48.272;11.562;2023-03-01T05:16:43;148.90;;;15.00;;
4603;SDS011;2314;48.272;11.562;2023-03-01T05:19:10;148.37;;;15.30;;
4603;SDS011;2314;48.272;11.562;2023-03-01T05:21:40;149.00;;;14.47;;
4603;SDS011;2314;48.272;11.562;2023-03-01T05:24:21;149.13;;;15.40;;
4603;SDS011;2314;48.272;11.562;2023-03-01T05:26:50;149.97;;;15.30;;
4603;SDS011;2314;48.272;11.562;2023-03-01T05:29:17;149.93;;;15.10;;
4603;SDS011;2314;48.272;11.562;2023-03-01T05:31:49;153.07;;;14.90;;
4603;SDS011;2314;48.272;11.562;2023-03-01T05:34:18;152.13;;;16.80;;
4603;SDS011;2314;48.272;11.562;2023-03-01T05:36:47;153.93;;;14.93;;
4603;SDS011;2314;48.272;11.562;2023-03-01T05:39:18;148.87;;;14.50;;
4603;SDS011;2314;48.272;11.562;2023-03-01T05:41:47;144.67;;;13.67;;
4603;SDS011;2314;48.272;11.562;2023-03-01T05:44:17;146.13;;;14.23;;
4603;SDS011;2314;48.272;11.562;2023-03-01T05:46:45;155.90;;;16.03;;
4603;SDS011;2314;48.272;11.562;2023-03-01T05:49:13;148.63;;;14.77;;
4603;SDS011;2314;48.272;11.562;2023-03-01T05:51:40;146.43;;;14.90;;
4603;SDS011;2314;48.272;11.562;2023-03-01T05:54:07;146.87;;;15.93;;
4603;SDS011;2314;48.272;11.562;2023-03-01T05:56:35;147.43;;;15.10;;
4603;SDS011;2314;48.272;11.562;2023-03-01T05:59:04;146.87;;;14.90;;
4603;SDS011;2314;48.272;11.562;2023-03-01T06:01:32;150.67;;;15.50;;
4603;SDS011;2314;48.272;11.562;2023-03-01T06:03:59;148.00;;;14.83;;
4603;SDS011;2314;48.272;11.562;2023-03-01T06:06:26;149.67;;;15.57;;
4603;SDS011;2314;48.272;11.562;2023-03-01T06:08:54;146.90;;;15.80;;
4603;SDS011;2314;48.272;11.562;2023-03-01T06:11:21;153.07;;;15.83;;
4603;SDS011;2314;48.272;11.562;2023-03-01T06:13:48;148.63;;;15.30;;
4603;SDS011;2314;48.272;11.562;2023-03-01T06:16:17;152.67;;;16.47;;
4603;SDS011;2314;48.272;11.562;2023-03-01T06:18:44;151.00;;;15.60;;
4603;SDS011;2314;48.272;11.562;2023-03-01T06:21:11;146.90;;;14.73;;
4603;SDS011;2314;48.272;11.562;2023-03-01T06:23:38;146.10;;;15.70;;
4603;SDS011;2314;48.272;11.562;2023-03-01T06:26:05;147.80;;;14.97;;
4603;SDS011;2314;48.272;11.562;2023-03-01T06:28:33;148.17;;;14.60;;
4603;SDS011;2314;48.272;11.562;2023-03-01T06:31:01;151.37;;;15.77;;
4603;SDS011;2314;48.272;11.562;2023-03-01T06:33:30;150.40;;;15.77;;
4603;SDS011;2314;48.272;11.562;2023-03-01T06:35:57;148.33;;;15.17;;
4603;SDS011;2314;48.272;11.562;2023-03-01T06:38:24;152.43;;;15.80;;
4603;SDS011;2314;48.272;11.562;2023-03-01T06:40:51;148.20;;;15.37;;
4603;SDS011;2314;48.272;11.562;2023-03-01T06:43:19;145.37;;;15.20;;
4603;SDS011;2314;48.272;11.562;2023-03-01T06:45:46;151.83;;;15.33;;
4603;SDS011;2314;48.272;11.562;2023-03-01T06:48:13;156.13;;;15.27;;
4603;SDS011;2314;48.272;11.562;2023-03-01T06:50:41;151.90;;;15.20;;
4603;SDS011;2314;48.272;11.562;2023-03-01T06:53:08;148.57;;;14.53;;
4603;SDS011;2314;48.272;11.562;2023-03-01T06:55:35;149.20;;;15.70;;
4603;SDS011;2314;48.272;11.562;2023-03-01T06:58:02;147.17;;;15.20;;
4603;SDS011;2314;48.272;11.562;2023-03-01T07:00:30;143.60;;;14.40;;
4603;SDS011;2314;48.272;11.562;2023-03-01T07:02:58;149.80;;;15.90;;
4603;SDS011;2314;48.272;11.562;2023-03-01T07:05:26;147.47;;;15.30;;
4603;SDS011;2314;48.272;11.562;2023-03-01T07:07:55;153.83;;;15.60;;
4603;SDS011;2314;48.272;11.562;2023-03-01T07:10:22;146.30;;;15.60;;
4603;SDS011;2314;48.272;11.562;2023-03-01T07:12:50;150.17;;;16.70;;
4603;SDS011;2314;48.272;11.562;2023-03-01T07:15:20;156.00;;;15.97;;
4603;SDS011;2314;48.272;11.562;2023-03-01T07:17:47;150.40;;;14.60;;
4603;SDS011;2314;48.272;11.562;2023-03-01T07:20:16;150.97;;;16.00;;
4603;SDS011;2314;48.272;11.562;2023-03-01T07:22:43;147.30;;;15.13;;
4603;SDS011;2314;48.272;11.562;2023-03-01T07:25:11;150.07;;;16.70;;
4603;SDS011;2314;48.272;11.562;2023-03-01T07:27:38;147.87;;;15.70;;
4603;SDS011;2314;48.272;11.562;2023-03-01T07:30:06;145.23;;;15.33;;
4603;SDS011;2314;48.272;11.562;2023-03-01T07:32:34;146.67;;;14.87;;
4603;SDS011;2314;48.272;11.562;2023-03-01T07:35:01;142.53;;;14.70;;
4603;SDS011;2314;48.272;11.562;2023-03-01T07:37:29;145.77;;;15.57;;
4603;SDS011;2314;48.272;11.562;2023-03-01T07:39:56;147.33;;;15.73;;
4603;SDS011;2314;48.272;11.562;2023-03-01T07:42:24;153.00;;;17.00;;
4603;SDS011;2314;48.272;11.562;2023-03-01T07:44:51;151.23;;;16.87;;
4603;SDS011;2314;48.272;11.562;2023-03-01T07:47:18;146.00;;;14.13;;
4603;SDS011;2314;48.272;11.562;2023-03-01T07:49:45;150.60;;;16.30;;
4603;SDS011;2314;48.272;11.562;2023-03-01T07:52:13;148.03;;;15.03;;
4603;SDS011;2314;48.272;11.562;2023-03-01T07:54:42;145.83;;;14.77;;
4603;SDS011;2314;48.272;11.562;2023-03-01T07:57:10;145.83;;;15.23;;
4603;SDS011;2314;48.272;11.562;2023-03-01T07:59:38;144.23;;;15.27;;
4603;SDS011;2314;48.272;11.562;2023-03-01T08:02:05;142.33;;;13.97;;
4603;SDS011;2314;48.272;11.562;2023-03-01T08:04:34;148.20;;;15.60;;
4603;SDS011;2314;48.272;11.562;2023-03-01T08:07:01;148.60;;;15.57;;
4603;SDS011;2314;48.272;11.562;2023-03-01T08:09:31;149.57;;;15.83;;
4603;SDS011;2314;48.272;11.562;2023-03-01T08:12:03;148.33;;;17.27;;
4603;SDS011;2314;48.272;11.562;2023-03-01T08:14:30;151.87;;;15.30;;
4603;SDS011;2314;48.272;11.562;2023-03-01T08:16:59;151.30;;;15.57;;
4603;SDS011;2314;48.272;11.562;2023-03-01T08:19:28;144.77;;;15.03;;
4603;SDS011;2314;48.272;11.562;2023-03-01T08:21:55;147.27;;;15.77;;
4603;SDS011;2314;48.272;11.562;2023-03-01T08:24:25;152.17;;;16.53;;
4603;SDS011;2314;48.272;11.562;2023-03-01T08:26:52;146.07;;;16.20;;
4603;SDS011;2314;48.272;11.562;2023-03-01T08:29:20;146.47;;;15.40;;
4603;SDS011;2314;48.272;11.562;2023-03-01T08:31:50;143.87;;;16.00;;
4603;SDS011;2314;48.272;11.562;2023-03-01T08:34:19;148.30;;;15.90;;
4603;SDS011;2314;48.272;11.562;2023-03-01T08:36:46;151.93;;;14.83;;
4603;SDS011;2314;48.272;11.562;2023-03-01T08:39:16;144.80;;;16.37;;
4603;SDS011;2314;48.272;11.562;2023-03-01T08:41:44;144.03;;;15.30;;
4603;SDS011;2314;48.272;11.562;2023-03-01T08:44:12;153.57;;;15.93;;
4603;SDS011;2314;48.272;11.562;2023-03-01T08:46:41;145.20;;;16.00;;
4603;SDS011;2314;48.272;11.562;2023-03-01T08:49:11;144.07;;;15.87;;
4603;SDS011;2314;48.272;11.562;2023-03-01T08:51:42;140.97;;;15.30;;
4603;SDS011;2314;48.272;11.562;2023-03-01T08:54:12;144.27;;;16.07;;
4603;SDS011;2314;48.272;11.562;2023-03-01T08:56:41;146.23;;;15.70;;
4603;SDS011;2314;48.272;11.562;2023-03-01T08:59:09;151.57;;;16.47;;
4603;SDS011;2314;48.272;11.562;2023-03-01T09:01:38;145.83;;;15.13;;
4603;SDS011;2314;48.272;11.562;2023-03-01T09:04:08;145.83;;;16.33;;
4603;SDS011;2314;48.272;11.562;2023-03-01T09:06:35;143.73;;;16.67;;
4603;SDS011;2314;48.272;11.562;2023-03-01T09:09:04;149.70;;;16.30;;
4603;SDS011;2314;48.272;11.562;2023-03-01T09:11:34;144.70;;;15.20;;
4603;SDS011;2314;48.272;11.562;2023-03-01T09:14:04;146.53;;;15.20;;
4603;SDS011;2314;48.272;11.562;2023-03-01T09:16:32;151.03;;;16.30;;
4603;SDS011;2314;48.272;11.562;2023-03-01T09:19:01;143.43;;;15.60;;
4603;SDS011;2314;48.272;11.562;2023-03-01T09:21:29;144.47;;;16.50;;
4603;SDS011;2314;48.272;11.562;2023-03-01T09:23:57;146.37;;;16.93;;
4603;SDS011;2314;48.272;11.562;2023-03-01T09:26:26;148.80;;;16.80;;
4603;SDS011;2314;48.272;11.562;2023-03-01T09:28:54;147.37;;;16.20;;
4603;SDS011;2314;48.272;11.562;2023-03-01T09:31:23;163.03;;;18.50;;
4603;SDS011;2314;48.272;11.562;2023-03-01T09:33:51;145.70;;;16.63;;
4603;SDS011;2314;48.272;11.562;2023-03-01T09:36:21;140.87;;;15.83;;
4603;SDS011;2314;48.272;11.562;2023-03-01T09:38:51;148.50;;;16.97;;
4603;SDS011;2314;48.272;11.562;2023-03-01T09:41:29;150.30;;;17.20;;
4603;SDS011;2314;48.272;11.562;2023-03-01T09:44:12;144.73;;;16.23;;
4603;SDS011;2314;48.272;11.562;2023-03-01T09:46:50;149.60;;;17.10;;
4603;SDS011;2314;48.272;11.562;2023-03-01T09:49:19;148.17;;;16.40;;
4603;SDS011;2314;48.272;11.562;2023-03-01T09:51:54;147.47;;;15.90;;
4603;SDS011;2314;48.272;11.562;2023-03-01T09:54:26;147.77;;;16.63;;
4603;SDS011;2314;48.272;11.562;2023-03-01T09:59:55;144.60;;;16.50;;
4603;SDS011;2314;48.272;11.562;2023-03-01T10:02:38;143.67;;;16.17;;
4603;SDS011;2314;48.272;11.562;2023-03-01T10:05:15;147.47;;;17.00;;
4603;SDS011;2314;48.272;11.562;2023-03-01T10:07:59;149.57;;;16.57;;
4603;SDS011;2314;48.272;11.562;2023-03-01T10:10:49;152.30;;;19.63;;
4603;SDS011;2314;48.272;11.562;2023-03-01T10:13:21;142.90;;;17.03;;
4603;SDS011;2314;48.272;11.562;2023-03-01T10:15:54;145.47;;;17.77;;
4603;SDS011;2314;48.272;11.562;2023-03-01T10:18:24;144.97;;;17.00;;
4603;SDS011;2314;48.272;11.562;2023-03-01T10:20:57;148.47;;;16.83;;
4603;SDS011;2314;48.272;11.562;2023-03-01T10:23:28;145.40;;;17.63;;
4603;SDS011;2314;48.272;11.562;2023-03-01T10:26:05;154.50;;;17.40;;
4603;SDS011;2314;48.272;11.562;2023-03-01T10:28:47;149.27;;;17.87;;
4603;SDS011;2314;48.272;11.562;2023-03-01T10:31:24;148.90;;;17.60;;
4603;SDS011;2314;48.272;11.562;2023-03-01T10:34:08;148.47;;;17.67;;
4603;SDS011;2314;48.272;11.562;2023-03-01T10:36:38;147.93;;;18.03;;
4603;SDS011;2314;48.272;11.562;2023-03-01T10:39:12;147.10;;;18.23;;
4603;SDS011;2314;48.272;11.562;2023-03-01T10:41:53;147.60;;;18.03;;
4603;SDS011;2314;48.272;11.562;2023-03-01T10:44:42;146.20;;;17.80;;
4603;SDS011;2314;48.272;11.562;2023-03-01T10:47:15;143.93;;;17.53;;
4603;SDS011;2314;48.272;11.562;2023-03-01T10:49:53;149.33;;;18.50;;
4603;SDS011;2314;48.272;11.562;2023-03-01T10:52:27;145.50;;;18.30;;
4603;SDS011;2314;48.272;11.562;2023-03-01T10:54:59;146.50;;;17.23;;
4603;SDS011;2314;48.272;11.562;2023-03-01T10:57:35;148.37;;;16.77;;
4603;SDS011;2314;48.272;11.562;2023-03-01T11:00:24;145.77;;;17.87;;
4603;SDS011;2314;48.272;11.562;2023-03-01T11:03:02;145.23;;;17.60;;
4603;SDS011;2314;48.272;11.562;2023-03-01T11:05:50;147.90;;;19.77;;
4603;SDS011;2314;48.272;11.562;2023-03-01T11:08:30;153.90;;;18.73;;
4603;SDS011;2314;48.272;11.562;2023-03-01T11:11:12;151.00;;;18.60;;
4603;SDS011;2314;48.272;11.562;2023-03-01T11:13:52;152.90;;;18.63;;
4603;SDS011;2314;48.272;11.562;2023-03-01T11:16:28;149.03;;;18.63;;
4603;SDS011;2314;48.272;11.562;2023-03-01T11:19:13;147.30;;;17.13;;
4603;SDS011;2314;48.272;11.562;2023-03-01T11:21:52;147.57;;;16.73;;
4603;SDS011;2314;48.272;11.562;2023-03-01T11:24:27;143.90;;;16.27;;
4603;SDS011;2314;48.272;11.562;2023-03-01T11:27:06;145.07;;;17.93;;
4603;SDS011;2314;48.272;11.562;2023-03-01T11:29:44;145.20;;;17.17;;
4603;SDS011;2314;48.272;11.562;2023-03-01T11:32:19;143.60;;;17.03;;
4603;SDS011;2314;48.272;11.562;2023-03-01T11:34:54;147.87;;;15.80;;
4603;SDS011;2314;48.272;11.562;2023-03-01T11:37:29;147.60;;;18.30;;
4603;SDS011;2314;48.272;11.562;2023-03-01T11:40:05;145.80;;;17.63;;
4603;SDS011;2314;48.272;11.562;2023-03-01T11:42:45;143.37;;;16.20;;
4603;SDS011;2314;48.272;11.562;2023-03-01T11:45:26;148.93;;;17.47;;
4603;SDS011;2314;48.272;11.562;2023-03-01T11:48:10;144.90;;;16.80;;
4603;SDS011;2314;48.272;11.562;2023-03-01T11:50:58;150.50;;;18.37;;
4603;SDS011;2314;48.272;11.562;2023-03-01T11:53:34;145.67;;;18.00;;
4603;SDS011;2314;48.272;11.562;2023-03-01T11:56:27;146.17;;;17.40;;
4603;SDS011;2314;48.272;11.562;2023-03-01T12:02:27;149.17;;;16.57;;
4603;SDS011;2314;48.272;11.562;2023-03-01T12:05:33;149.30;;;18.83;;
4603;SDS011;2314;48.272;11.562;2023-03-01T12:08:29;143.70;;;16.73;;
4603;SDS011;2314;48.272;11.562;2023-03-01T12:11:03;152.50;;;18.20;;
4603;SDS011;2314;48.272;11.562;2023-03-01T12:13:50;145.27;;;18.60;;
4603;SDS011;2314;48.272;11.562;2023-03-01T12:19:41;154.27;;;17.67;;
4603;SDS011;2314;48.272;11.562;2023-03-01T12:22:46;144.27;;;16.53;;
4603;SDS011;2314;48.272;11.562;2023-03-01T12:25:43;145.77;;;17.17;;
4603;SDS011;2314;48.272;11.562;2023-03-01T12:28:20;145.47;;;18.00;;
4603;SDS011;2314;48.272;11.562;2023-03-01T12:34:34;145.67;;;17.63;;
4603;SDS011;2314;48.272;11.562;2023-03-01T12:37:29;147.23;;;18.00;;
4603;SDS011;2314;48.272;11.562;2023-03-01T12:40:19;146.70;;;17.70;;
4603;SDS011;2314;48.272;11.562;2023-03-01T12:43:06;147.70;;;16.80;;
4603;SDS011;2314;48.272;11.562;2023-03-01T12:45:56;144.73;;;17.00;;
4603;SDS011;2314;48.272;11.562;2023-03-01T12:48:40;145.77;;;17.70;;
4603;SDS011;2314;48.272;11.562;2023-03-01T12:51:19;144.57;;;16.37;;
4603;SDS011;2314;48.272;11.562;2023-03-01T12:53:53;153.93;;;17.77;;
4603;SDS011;2314;48.272;11.562;2023-03-01T12:56:23;145.07;;;17.13;;
4603;SDS011;2314;48.272;11.562;2023-03-01T12:58:57;144.93;;;15.90;;
4603;SDS011;2314;48.272;11.562;2023-03-01T13:01:36;147.20;;;17.03;;
4603;SDS011;2314;48.272;11.562;2023-03-01T13:04:16;148.07;;;17.30;;
4603;SDS011;2314;48.272;11.562;2023-03-01T13:06:55;141.47;;;15.83;;
4603;SDS011;2314;48.272;11.562;2023-03-01T13:09:37;145.53;;;16.90;;
4603;SDS011;2314;48.272;11.562;2023-03-01T13:15:24;145.03;;;17.30;;
4603;SDS011;2314;48.272;11.562;2023-03-01T13:17:57;149.83;;;16.83;;
4603;SDS011;2314;48.272;11.562;2023-03-01T13:20:26;143.90;;;16.80;;
4603;SDS011;2314;48.272;11.562;2023-03-01T13:23:03;144.40;;;16.10;;
4603;SDS011;2314;48.272;11.562;2023-03-01T13:25:40;147.30;;;16.30;;
4603;SDS011;2314;48.272;11.562;2023-03-01T13:34:41;153.87;;;16.90;;
4603;SDS011;2314;48.272;11.562;2023-03-01T13:37:25;140.33;;;15.37;;
4603;SDS011;2314;48.272;11.562;2023-03-01T13:39:59;147.23;;;17.23;;
4603;SDS011;2314;48.272;11.562;2023-03-01T13:42:33;145.03;;;16.80;;
4603;SDS011;2314;48.272;11.562;2023-03-01T13:45:14;147.33;;;17.30;;
4603;SDS011;2314;48.272;11.562;2023-03-01T13:47:52;142.67;;;16.40;;
4603;SDS011;2314;48.272;11.562;2023-03-01T13:50:24;146.10;;;15.37;;
4603;SDS011;2314;48.272;11.562;2023-03-01T13:52:55;148.10;;;18.10;;
4603;SDS011;2314;48.272;11.562;2023-03-01T13:55:27;141.37;;;15.17;;
4603;SDS011;2314;48.272;11.562;2023-03-01T13:58:05;139.97;;;15.37;;
4603;SDS011;2314;48.272;11.562;2023-03-01T14:00:45;142.67;;;15.50;;
4603;SDS011;2314;48.272;11.562;2023-03-01T14:03:13;139.97;;;16.30;;
4603;SDS011;2314;48.272;11.562;2023-03-01T14:05:44;144.07;;;16.10;;
4603;SDS011;2314;48.272;11.562;2023-03-01T14:08:31;143.17;;;16.10;;
4603;SDS011;2314;48.272;11.562;2023-03-01T14:11:09;141.30;;;15.50;;
4603;SDS011;2314;48.272;11.562;2023-03-01T14:17:07;145.30;;;16.73;;
4603;SDS011;2314;48.272;11.562;2023-03-01T14:20:10;145.80;;;15.13;;
4603;SDS011;2314;48.272;11.562;2023-03-01T14:22:43;145.30;;;15.47;;
4603;SDS011;2314;48.272;11.562;2023-03-01T14:25:23;140.37;;;15.70;;
4603;SDS011;2314;48.272;11.562;2023-03-01T14:27:55;143.77;;;16.30;;
4603;SDS011;2314;48.272;11.562;2023-03-01T14:30:30;145.40;;;15.60;;
4603;SDS011;2314;48.272;11.562;2023-03-01T14:33:02;142.30;;;15.30;;
4603;SDS011;2314;48.272;11.562;2023-03-01T14:35:33;139.77;;;15.00;;
4603;SDS011;2314;48.272;11.562;2023-03-01T14:38:02;141.20;;;15.60;;
4603;SDS011;2314;48.272;11.562;2023-03-01T14:40:31;144.60;;;16.23;;
4603;SDS011;2314;48.272;11.562;2023-03-01T14:43:02;141.37;;;14.20;;
4603;SDS011;2314;48.272;11.562;2023-03-01T14:45:39;142.67;;;15.47;;
4603;SDS011;2314;48.272;11.562;2023-03-01T14:48:13;151.37;;;14.23;;
4603;SDS011;2314;48.272;11.562;2023-03-01T14:50:43;144.83;;;13.90;;
4603;SDS011;2314;48.272;11.562;2023-03-01T14:53:15;139.40;;;13.90;;
4603;SDS011;2314;48.272;11.562;2023-03-01T14:55:46;144.57;;;15.17;;
4603;SDS011;2314;48.272;11.562;2023-03-01T14:58:18;139.17;;;13.67;;
4603;SDS011;2314;48.272;11.562;2023-03-01T15:00:50;143.37;;;15.90;;
4603;SDS011;2314;48.272;11.562;2023-03-01T15:03:23;139.23;;;13.60;;
4603;SDS011;2314;48.272;11.562;2023-03-01T15:05:56;143.93;;;15.63;;
4603;SDS011;2314;48.272;11.562;2023-03-01T15:08:24;141.90;;;13.27;;
4603;SDS011;2314;48.272;11.562;2023-03-01T15:10:59;140.37;;;13.70;;
4603;SDS011;2314;48.272;11.562;2023-03-01T15:13:31;137.80;;;14.10;;
4603;SDS011;2314;48.272;11.562;2023-03-01T15:16:07;144.20;;;13.87;;
4603;SDS011;2314;48.272;11.562;2023-03-01T15:18:37;143.00;;;14.20;;